sensor_id;sensor_type;location;lat;lon;timestamp;temperature;humidity
37408;DHT22;24866;50.248;8.252;2022-08-19T00:00:31;21.20;99.90
37408;DHT22;24866;50.248;8.252;2022-08-19T00:03:02;21.10;99.90
37408;DHT22;24866;50.248;8.252;2022-08-19T00:05:32;21.00;99.90
37408;DHT22;24866;50.248;8.252;2022-08-19T00:08:04;20.80;99.90
37408;DHT22;24866;50.248;8.252;2022-08-19T00:10:34;20.60;99.90
37408;DHT22;24866;50.248;8.252;2022-08-19T00:13:04;20.60;99.90
37408;DHT22;24866;50.248;8.252;2022-08-19T00:15:33;20.50;99.90
37408;DHT22;24866;50.248;8.252;2022-08-19T00:18:03;20.60;99.90
37408;DHT22;24866;50.248;8.252;2022-08-19T00:20:33;20.60;99.90
37408;DHT22;24866;50.248;8.252;2022-08-19T00:23:04;20.70;99.90
37408;DHT22;24866;50.248;8.252;2022-08-19T00:25:34;20.60;99.90
37408;DHT22;24866;50.248;8.252;2022-08-19T00:28:04;20.60;99.90
37408;DHT22;24866;50.248;8.252;2022-08-19T00:30:34;20.40;99.90
37408;DHT22;24866;50.248;8.252;2022-08-19T00:33:05;20.40;99.90
37408;DHT22;24866;50.248;8.252;2022-08-19T00:35:36;20.30;99.90
37408;DHT22;24866;50.248;8.252;2022-08-19T00:38:08;20.30;99.90
37408;DHT22;24866;50.248;8.252;2022-08-19T00:40:38;20.30;99.90
37408;DHT22;24866;50.248;8.252;2022-08-19T00:43:09;20.30;99.90
37408;DHT22;24866;50.248;8.252;2022-08-19T00:45:41;20.20;99.90
37408;DHT22;24866;50.248;8.252;2022-08-19T00:48:12;20.10;99.90
37408;DHT22;24866;50.248;8.252;2022-08-19T00:50:43;20.30;99.90
37408;DHT22;24866;50.248;8.252;2022-08-19T00:53:17;20.30;99.90
37408;DHT22;24866;50.248;8.252;2022-08-19T00:55:50;20.40;99.90
37408;DHT22;24866;50.248;8.252;2022-08-19T00:58:25;20.40;99.90
37408;DHT22;24866;50.248;8.252;2022-08-19T01:00:56;20.40;99.90
37408;DHT22;24866;50.248;8.252;2022-08-19T01:03:27;20.30;99.90
37408;DHT22;24866;50.248;8.252;2022-08-19T01:05:57;20.30;99.90
37408;DHT22;24866;50.248;8.252;2022-08-19T01:08:29;20.20;99.90
37408;DHT22;24866;50.248;8.252;2022-08-19T01:11:00;20.20;99.90
37408;DHT22;24866;50.248;8.252;2022-08-19T01:13:32;20.20;99.90
37408;DHT22;24866;50.248;8.252;2022-08-19T01:16:05;20.10;99.90
37408;DHT22;24866;50.248;8.252;2022-08-19T01:18:39;20.20;99.90
37408;DHT22;24866;50.248;8.252;2022-08-19T01:21:15;20.30;99.90
37408;DHT22;24866;50.248;8.252;2022-08-19T01:23:47;20.20;99.90
37408;DHT22;24866;50.248;8.252;2022-08-19T01:26:18;20.00;99.90
37408;DHT22;24866;50.248;8.252;2022-08-19T01:28:51;20.00;99.90
37408;DHT22;24866;50.248;8.252;2022-08-19T01:31:25;20.00;99.90
37408;DHT22;24866;50.248;8.252;2022-08-19T01:33:58;20.00;99.90
37408;DHT22;24866;50.248;8.252;2022-08-19T01:36:30;20.10;99.90
37408;DHT22;24866;50.248;8.252;2022-08-19T01:39:03;20.10;99.90
37408;DHT22;24866;50.248;8.252;2022-08-19T01:41:33;19.90;99.90
37408;DHT22;24866;50.248;8.252;2022-08-19T01:44:04;19.80;99.90
37408;DHT22;24866;50.248;8.252;2022-08-19T01:46:34;19.80;99.90
37408;DHT22;24866;50.248;8.252;2022-08-19T01:49:05;19.90;99.90
37408;DHT22;24866;50.248;8.252;2022-08-19T01:51:36;19.90;99.90
37408;DHT22;24866;50.248;8.252;2022-08-19T01:54:08;19.90;99.90
37408;DHT22;24866;50.248;8.252;2022-08-19T01:56:38;20.10;99.90
37408;DHT22;24866;50.248;8.252;2022-08-19T01:59:11;20.30;99.90
37408;DHT22;24866;50.248;8.252;2022-08-19T02:01:43;20.30;99.90
37408;DHT22;24866;50.248;8.252;2022-08-19T02:04:13;20.30;99.90
37408;DHT22;24866;50.248;8.252;2022-08-19T02:06:43;20.30;99.90
37408;DHT22;24866;50.248;8.252;2022-08-19T02:09:14;20.20;99.90
37408;DHT22;24866;50.248;8.252;2022-08-19T02:11:44;20.30;99.90
37408;DHT22;24866;50.248;8.252;2022-08-19T02:14:14;20.20;99.90
37408;DHT22;24866;50.248;8.252;2022-08-19T02:16:44;20.00;99.90
37408;DHT22;24866;50.248;8.252;2022-08-19T02:19:14;19.80;99.90
37408;DHT22;24866;50.248;8.252;2022-08-19T02:21:44;19.70;99.90
37408;DHT22;24866;50.248;8.252;2022-08-19T02:24:15;19.80;99.90
37408;DHT22;24866;50.248;8.252;2022-08-19T02:26:45;19.90;99.90
37408;DHT22;24866;50.248;8.252;2022-08-19T02:29:15;19.90;99.90
37408;DHT22;24866;50.248;8.252;2022-08-19T02:31:45;19.90;99.90
37408;DHT22;24866;50.248;8.252;2022-08-19T02:34:15;19.90;99.90
37408;DHT22;24866;50.248;8.252;2022-08-19T02:36:45;19.90;99.90
37408;DHT22;24866;50.248;8.252;2022-08-19T02:39:17;19.90;99.90
37408;DHT22;24866;50.248;8.252;2022-08-19T02:41:46;20.00;99.90
37408;DHT22;24866;50.248;8.252;2022-08-19T02:44:18;20.00;99.90
37408;DHT22;24866;50.248;8.252;2022-08-19T02:46:48;19.60;99.90
37408;DHT22;24866;50.248;8.252;2022-08-19T02:49:18;19.70;99.90
37408;DHT22;24866;50.248;8.252;2022-08-19T02:51:48;19.70;99.90
37408;DHT22;24866;50.248;8.252;2022-08-19T02:54:20;19.60;99.90
37408;DHT22;24866;50.248;8.252;2022-08-19T02:56:50;19.60;99.90
37408;DHT22;24866;50.248;8.252;2022-08-19T02:59:19;19.70;99.90
37408;DHT22;24866;50.248;8.252;2022-08-19T03:01:49;19.70;99.90
37408;DHT22;24866;50.248;8.252;2022-08-19T03:04:19;19.70;99.90
37408;DHT22;24866;50.248;8.252;2022-08-19T03:06:49;19.60;99.90
37408;DHT22;24866;50.248;8.252;2022-08-19T03:09:21;19.60;99.90
37408;DHT22;24866;50.248;8.252;2022-08-19T03:11:51;19.70;99.90
37408;DHT22;24866;50.248;8.252;2022-08-19T03:14:21;19.70;99.90
37408;DHT22;24866;50.248;8.252;2022-08-19T03:16:52;19.70;99.90
37408;DHT22;24866;50.248;8.252;2022-08-19T03:19:22;19.80;99.90
37408;DHT22;24866;50.248;8.252;2022-08-19T03:21:52;19.80;99.90
37408;DHT22;24866;50.248;8.252;2022-08-19T03:24:23;19.70;99.90
37408;DHT22;24866;50.248;8.252;2022-08-19T03:26:55;19.70;99.90
37408;DHT22;24866;50.248;8.252;2022-08-19T03:29:26;19.60;99.90
37408;DHT22;24866;50.248;8.252;2022-08-19T03:31:57;19.60;99.90
37408;DHT22;24866;50.248;8.252;2022-08-19T03:34:30;19.60;99.90
37408;DHT22;24866;50.248;8.252;2022-08-19T03:37:04;19.60;99.90
37408;DHT22;24866;50.248;8.252;2022-08-19T03:39:37;19.60;99.90
37408;DHT22;24866;50.248;8.252;2022-08-19T03:42:07;19.60;99.90
37408;DHT22;24866;50.248;8.252;2022-08-19T03:44:37;19.60;99.90
37408;DHT22;24866;50.248;8.252;2022-08-19T03:47:07;19.60;99.90
37408;DHT22;24866;50.248;8.252;2022-08-19T03:49:37;19.50;99.90
37408;DHT22;24866;50.248;8.252;2022-08-19T03:52:07;19.50;99.90
37408;DHT22;24866;50.248;8.252;2022-08-19T03:54:38;19.40;99.90
37408;DHT22;24866;50.248;8.252;2022-08-19T03:57:08;19.30;99.90
37408;DHT22;24866;50.248;8.252;2022-08-19T03:59:39;19.20;99.90
37408;DHT22;24866;50.248;8.252;2022-08-19T04:02:11;19.20;99.90
37408;DHT22;24866;50.248;8.252;2022-08-19T04:04:43;19.20;99.90
37408;DHT22;24866;50.248;8.252;2022-08-19T04:07:14;19.20;99.90
37408;DHT22;24866;50.248;8.252;2022-08-19T04:09:45;19.30;99.90
37408;DHT22;24866;50.248;8.252;2022-08-19T04:12:15;19.30;99.90
37408;DHT22;24866;50.248;8.252;2022-08-19T04:14:45;19.30;99.90
37408;DHT22;24866;50.248;8.252;2022-08-19T04:17:15;19.30;99.90
37408;DHT22;24866;50.248;8.252;2022-08-19T04:19:45;19.10;99.90
37408;DHT22;24866;50.248;8.252;2022-08-19T04:22:15;18.90;99.90
37408;DHT22;24866;50.248;8.252;2022-08-19T04:24:46;18.90;99.90
37408;DHT22;24866;50.248;8.252;2022-08-19T04:27:16;19.00;99.90
37408;DHT22;24866;50.248;8.252;2022-08-19T04:29:46;19.10;99.90
37408;DHT22;24866;50.248;8.252;2022-08-19T04:32:16;19.10;99.90
37408;DHT22;24866;50.248;8.252;2022-08-19T04:34:46;19.00;99.90
37408;DHT22;24866;50.248;8.252;2022-08-19T04:37:16;19.00;99.90
37408;DHT22;24866;50.248;8.252;2022-08-19T04:39:47;18.90;99.90
37408;DHT22;24866;50.248;8.252;2022-08-19T04:42:34;18.90;99.90
37408;DHT22;24866;50.248;8.252;2022-08-19T04:45:12;18.60;99.90
37408;DHT22;24866;50.248;8.252;2022-08-19T04:47:43;18.60;99.90
37408;DHT22;24866;50.248;8.252;2022-08-19T04:50:14;18.60;99.90
37408;DHT22;24866;50.248;8.252;2022-08-19T04:52:44;18.60;99.90
37408;DHT22;24866;50.248;8.252;2022-08-19T04:55:15;18.60;99.90
37408;DHT22;24866;50.248;8.252;2022-08-19T04:57:46;18.70;99.90
37408;DHT22;24866;50.248;8.252;2022-08-19T05:00:16;18.80;99.90
37408;DHT22;24866;50.248;8.252;2022-08-19T05:02:46;18.80;99.90
37408;DHT22;24866;50.248;8.252;2022-08-19T05:05:17;18.70;99.90
37408;DHT22;24866;50.248;8.252;2022-08-19T05:07:48;18.80;99.90
37408;DHT22;24866;50.248;8.252;2022-08-19T05:10:19;18.80;99.90
37408;DHT22;24866;50.248;8.252;2022-08-19T05:12:49;18.70;99.90
37408;DHT22;24866;50.248;8.252;2022-08-19T05:15:19;18.70;99.90
37408;DHT22;24866;50.248;8.252;2022-08-19T05:17:49;18.60;99.90
37408;DHT22;24866;50.248;8.252;2022-08-19T05:20:37;18.60;99.90
37408;DHT22;24866;50.248;8.252;2022-08-19T05:23:25;18.40;99.90
37408;DHT22;24866;50.248;8.252;2022-08-19T05:25:56;18.50;99.90
37408;DHT22;24866;50.248;8.252;2022-08-19T05:28:26;18.60;99.90
37408;DHT22;24866;50.248;8.252;2022-08-19T05:30:56;18.80;99.90
37408;DHT22;24866;50.248;8.252;2022-08-19T05:33:26;18.90;99.90
37408;DHT22;24866;50.248;8.252;2022-08-19T05:35:56;18.90;99.90
37408;DHT22;24866;50.248;8.252;2022-08-19T05:38:26;18.90;99.90
37408;DHT22;24866;50.248;8.252;2022-08-19T05:40:59;18.90;99.90
37408;DHT22;24866;50.248;8.252;2022-08-19T05:43:29;19.00;99.90
37408;DHT22;24866;50.248;8.252;2022-08-19T05:45:59;19.00;99.90
37408;DHT22;24866;50.248;8.252;2022-08-19T05:48:29;19.10;99.90
37408;DHT22;24866;50.248;8.252;2022-08-19T05:51:04;19.20;99.90
37408;DHT22;24866;50.248;8.252;2022-08-19T05:53:35;19.20;99.90
37408;DHT22;24866;50.248;8.252;2022-08-19T05:56:07;19.10;99.90
37408;DHT22;24866;50.248;8.252;2022-08-19T05:58:38;19.00;99.90
37408;DHT22;24866;50.248;8.252;2022-08-19T06:01:11;19.10;99.90
37408;DHT22;24866;50.248;8.252;2022-08-19T06:03:42;19.10;99.90
37408;DHT22;24866;50.248;8.252;2022-08-19T06:06:13;20.00;99.90
37408;DHT22;24866;50.248;8.252;2022-08-19T06:08:44;20.50;99.90
37408;DHT22;24866;50.248;8.252;2022-08-19T06:11:23;20.70;99.90
37408;DHT22;24866;50.248;8.252;2022-08-19T06:13:53;20.90;99.90
37408;DHT22;24866;50.248;8.252;2022-08-19T06:16:24;21.00;99.90
37408;DHT22;24866;50.248;8.252;2022-08-19T06:18:55;21.10;99.90
37408;DHT22;24866;50.248;8.252;2022-08-19T06:21:28;21.20;99.90
37408;DHT22;24866;50.248;8.252;2022-08-19T06:23:58;21.30;99.90
37408;DHT22;24866;50.248;8.252;2022-08-19T06:26:30;21.40;99.90
37408;DHT22;24866;50.248;8.252;2022-08-19T06:29:00;21.40;99.90
37408;DHT22;24866;50.248;8.252;2022-08-19T06:31:31;21.50;99.90
37408;DHT22;24866;50.248;8.252;2022-08-19T06:34:02;21.50;99.90
37408;DHT22;24866;50.248;8.252;2022-08-19T06:36:35;21.50;99.90
37408;DHT22;24866;50.248;8.252;2022-08-19T06:39:08;21.50;99.90
37408;DHT22;24866;50.248;8.252;2022-08-19T06:41:42;21.50;99.90
37408;DHT22;24866;50.248;8.252;2022-08-19T06:44:13;21.70;99.90
37408;DHT22;24866;50.248;8.252;2022-08-19T06:46:43;21.40;99.90
37408;DHT22;24866;50.248;8.252;2022-08-19T06:49:13;21.70;99.90
37408;DHT22;24866;50.248;8.252;2022-08-19T06:51:45;21.70;99.90
37408;DHT22;24866;50.248;8.252;2022-08-19T06:54:16;21.60;99.90
37408;DHT22;24866;50.248;8.252;2022-08-19T06:56:48;21.50;99.90
37408;DHT22;24866;50.248;8.252;2022-08-19T06:59:20;21.90;99.90
37408;DHT22;24866;50.248;8.252;2022-08-19T07:01:53;21.70;99.90
37408;DHT22;24866;50.248;8.252;2022-08-19T07:04:25;21.60;99.90
37408;DHT22;24866;50.248;8.252;2022-08-19T07:07:02;21.40;99.90
37408;DHT22;24866;50.248;8.252;2022-08-19T07:09:35;21.30;99.90
37408;DHT22;24866;50.248;8.252;2022-08-19T07:12:10;21.50;99.90
37408;DHT22;24866;50.248;8.252;2022-08-19T07:14:42;21.40;99.90
37408;DHT22;24866;50.248;8.252;2022-08-19T07:17:14;21.10;99.90
37408;DHT22;24866;50.248;8.252;2022-08-19T07:19:44;21.20;99.90
37408;DHT22;24866;50.248;8.252;2022-08-19T07:22:14;21.40;99.90
37408;DHT22;24866;50.248;8.252;2022-08-19T07:24:44;21.30;99.90
37408;DHT22;24866;50.248;8.252;2022-08-19T07:27:15;21.50;99.90
37408;DHT22;24866;50.248;8.252;2022-08-19T07:29:45;21.50;99.90
37408;DHT22;24866;50.248;8.252;2022-08-19T07:32:16;21.50;99.90
37408;DHT22;24866;50.248;8.252;2022-08-19T07:34:46;21.60;99.90
37408;DHT22;24866;50.248;8.252;2022-08-19T07:37:16;21.50;99.90
37408;DHT22;24866;50.248;8.252;2022-08-19T07:39:46;21.80;99.90
37408;DHT22;24866;50.248;8.252;2022-08-19T07:42:18;21.80;99.90
37408;DHT22;24866;50.248;8.252;2022-08-19T07:44:49;21.50;99.90
37408;DHT22;24866;50.248;8.252;2022-08-19T07:47:19;21.40;99.90
37408;DHT22;24866;50.248;8.252;2022-08-19T07:49:49;21.40;99.90
37408;DHT22;24866;50.248;8.252;2022-08-19T07:52:19;21.40;99.90
37408;DHT22;24866;50.248;8.252;2022-08-19T07:54:49;21.30;99.90
37408;DHT22;24866;50.248;8.252;2022-08-19T07:57:21;21.30;99.90
37408;DHT22;24866;50.248;8.252;2022-08-19T07:59:51;21.40;99.90
37408;DHT22;24866;50.248;8.252;2022-08-19T08:02:21;21.50;99.90
37408;DHT22;24866;50.248;8.252;2022-08-19T08:04:51;21.60;99.90
37408;DHT22;24866;50.248;8.252;2022-08-19T08:07:38;21.70;99.90
37408;DHT22;24866;50.248;8.252;2022-08-19T08:10:26;21.60;99.90
37408;DHT22;24866;50.248;8.252;2022-08-19T08:12:57;21.50;99.90
37408;DHT22;24866;50.248;8.252;2022-08-19T08:15:27;21.70;99.90
37408;DHT22;24866;50.248;8.252;2022-08-19T08:17:58;21.70;99.90
37408;DHT22;24866;50.248;8.252;2022-08-19T08:20:28;21.70;99.90
37408;DHT22;24866;50.248;8.252;2022-08-19T08:22:58;21.70;99.90
37408;DHT22;24866;50.248;8.252;2022-08-19T08:25:45;22.00;99.90
37408;DHT22;24866;50.248;8.252;2022-08-19T08:28:18;22.00;99.90
37408;DHT22;24866;50.248;8.252;2022-08-19T08:30:49;21.90;99.90
37408;DHT22;24866;50.248;8.252;2022-08-19T08:33:22;22.30;99.90
37408;DHT22;24866;50.248;8.252;2022-08-19T08:35:52;22.30;99.90
37408;DHT22;24866;50.248;8.252;2022-08-19T08:38:22;22.10;99.90
37408;DHT22;24866;50.248;8.252;2022-08-19T08:40:56;22.30;99.90
37408;DHT22;24866;50.248;8.252;2022-08-19T08:43:38;22.50;99.90
37408;DHT22;24866;50.248;8.252;2022-08-19T08:46:13;22.40;99.90
37408;DHT22;24866;50.248;8.252;2022-08-19T08:48:49;22.20;99.90
37408;DHT22;24866;50.248;8.252;2022-08-19T08:51:25;22.60;99.90
37408;DHT22;24866;50.248;8.252;2022-08-19T08:53:57;22.30;99.90
37408;DHT22;24866;50.248;8.252;2022-08-19T08:56:27;22.30;99.90
37408;DHT22;24866;50.248;8.252;2022-08-19T08:59:02;22.30;99.90
37408;DHT22;24866;50.248;8.252;2022-08-19T09:01:35;22.50;99.90
37408;DHT22;24866;50.248;8.252;2022-08-19T09:04:06;22.30;99.90
37408;DHT22;24866;50.248;8.252;2022-08-19T09:06:40;22.30;99.90
37408;DHT22;24866;50.248;8.252;2022-08-19T09:09:14;22.40;99.90
37408;DHT22;24866;50.248;8.252;2022-08-19T09:11:54;22.30;99.90
37408;DHT22;24866;50.248;8.252;2022-08-19T09:14:37;22.50;99.90
37408;DHT22;24866;50.248;8.252;2022-08-19T09:17:09;22.40;99.90
37408;DHT22;24866;50.248;8.252;2022-08-19T09:19:49;22.70;99.90
37408;DHT22;24866;50.248;8.252;2022-08-19T09:22:20;22.70;99.90
37408;DHT22;24866;50.248;8.252;2022-08-19T09:24:51;22.70;99.90
37408;DHT22;24866;50.248;8.252;2022-08-19T09:27:23;22.90;99.90
37408;DHT22;24866;50.248;8.252;2022-08-19T09:29:55;23.00;99.90
37408;DHT22;24866;50.248;8.252;2022-08-19T09:32:25;23.10;99.90
37408;DHT22;24866;50.248;8.252;2022-08-19T09:34:56;23.30;99.90
37408;DHT22;24866;50.248;8.252;2022-08-19T09:37:26;23.80;99.90
37408;DHT22;24866;50.248;8.252;2022-08-19T09:39:56;23.80;99.90
37408;DHT22;24866;50.248;8.252;2022-08-19T09:42:26;23.60;99.90
37408;DHT22;24866;50.248;8.252;2022-08-19T09:44:57;23.50;99.90
37408;DHT22;24866;50.248;8.252;2022-08-19T09:47:27;23.50;99.90
37408;DHT22;24866;50.248;8.252;2022-08-19T09:49:58;23.70;99.90
37408;DHT22;24866;50.248;8.252;2022-08-19T09:52:28;23.50;99.90
37408;DHT22;24866;50.248;8.252;2022-08-19T09:54:59;23.40;99.90
37408;DHT22;24866;50.248;8.252;2022-08-19T09:57:29;23.70;99.90
37408;DHT22;24866;50.248;8.252;2022-08-19T10:00:00;24.10;99.90
37408;DHT22;24866;50.248;8.252;2022-08-19T10:02:30;23.70;99.90
37408;DHT22;24866;50.248;8.252;2022-08-19T10:05:00;23.50;99.90
37408;DHT22;24866;50.248;8.252;2022-08-19T10:07:48;23.80;99.90
37408;DHT22;24866;50.248;8.252;2022-08-19T10:10:18;23.80;99.90
37408;DHT22;24866;50.248;8.252;2022-08-19T10:12:48;24.10;99.90
37408;DHT22;24866;50.248;8.252;2022-08-19T10:15:20;24.20;99.90
37408;DHT22;24866;50.248;8.252;2022-08-19T10:17:50;24.10;1.00
37408;DHT22;24866;50.248;8.252;2022-08-19T10:20:19;24.00;1.00
37408;DHT22;24866;50.248;8.252;2022-08-19T10:22:50;24.10;99.90
37408;DHT22;24866;50.248;8.252;2022-08-19T10:25:20;24.30;1.00
37408;DHT22;24866;50.248;8.252;2022-08-19T10:27:50;24.00;1.00
37408;DHT22;24866;50.248;8.252;2022-08-19T10:30:21;24.00;99.90
37408;DHT22;24866;50.248;8.252;2022-08-19T10:32:51;23.80;99.90
37408;DHT22;24866;50.248;8.252;2022-08-19T10:35:21;24.20;99.90
37408;DHT22;24866;50.248;8.252;2022-08-19T10:37:51;24.50;99.90
37408;DHT22;24866;50.248;8.252;2022-08-19T10:40:21;24.60;1.00
37408;DHT22;24866;50.248;8.252;2022-08-19T10:42:51;24.50;99.90
37408;DHT22;24866;50.248;8.252;2022-08-19T10:45:23;24.60;99.90
37408;DHT22;24866;50.248;8.252;2022-08-19T10:47:55;24.30;99.90
37408;DHT22;24866;50.248;8.252;2022-08-19T10:50:25;24.60;99.90
37408;DHT22;24866;50.248;8.252;2022-08-19T10:53:12;25.20;99.90
37408;DHT22;24866;50.248;8.252;2022-08-19T10:55:44;25.30;99.90
37408;DHT22;24866;50.248;8.252;2022-08-19T10:58:31;25.60;1.00
37408;DHT22;24866;50.248;8.252;2022-08-19T11:01:03;25.30;99.90
37408;DHT22;24866;50.248;8.252;2022-08-19T11:03:33;25.30;1.00
37408;DHT22;24866;50.248;8.252;2022-08-19T11:06:05;25.60;99.90
37408;DHT22;24866;50.248;8.252;2022-08-19T11:08:36;25.50;51.90
37408;DHT22;24866;50.248;8.252;2022-08-19T11:11:07;25.50;1.00
37408;DHT22;24866;50.248;8.252;2022-08-19T11:13:41;25.20;1.00
37408;DHT22;24866;50.248;8.252;2022-08-19T11:16:18;25.20;97.60
37408;DHT22;24866;50.248;8.252;2022-08-19T11:18:50;25.50;1.00
37408;DHT22;24866;50.248;8.252;2022-08-19T11:21:22;25.70;1.00
37408;DHT22;24866;50.248;8.252;2022-08-19T11:23:54;25.70;52.70
37408;DHT22;24866;50.248;8.252;2022-08-19T11:26:28;25.90;1.00
37408;DHT22;24866;50.248;8.252;2022-08-19T11:28:59;25.60;99.90
37408;DHT22;24866;50.248;8.252;2022-08-19T11:31:33;25.80;52.50
37408;DHT22;24866;50.248;8.252;2022-08-19T11:34:08;25.20;1.00
37408;DHT22;24866;50.248;8.252;2022-08-19T11:36:41;25.30;1.00
37408;DHT22;24866;50.248;8.252;2022-08-19T11:39:15;25.70;1.00
37408;DHT22;24866;50.248;8.252;2022-08-19T11:41:45;26.30;1.00
37408;DHT22;24866;50.248;8.252;2022-08-19T11:44:15;26.10;99.90
37408;DHT22;24866;50.248;8.252;2022-08-19T11:46:46;26.20;1.00
37408;DHT22;24866;50.248;8.252;2022-08-19T11:49:18;26.20;99.90
37408;DHT22;24866;50.248;8.252;2022-08-19T11:51:49;26.30;99.90
37408;DHT22;24866;50.248;8.252;2022-08-19T11:54:19;25.80;99.90
37408;DHT22;24866;50.248;8.252;2022-08-19T11:56:49;26.20;99.90
37408;DHT22;24866;50.248;8.252;2022-08-19T11:59:19;26.20;35.80
37408;DHT22;24866;50.248;8.252;2022-08-19T12:01:50;26.30;1.00
37408;DHT22;24866;50.248;8.252;2022-08-19T12:04:20;26.70;1.00
37408;DHT22;24866;50.248;8.252;2022-08-19T12:06:50;26.40;1.00
37408;DHT22;24866;50.248;8.252;2022-08-19T12:09:20;26.50;1.00
37408;DHT22;24866;50.248;8.252;2022-08-19T12:11:50;26.70;1.00
37408;DHT22;24866;50.248;8.252;2022-08-19T12:14:20;26.60;48.60
37408;DHT22;24866;50.248;8.252;2022-08-19T12:16:51;26.80;18.00
37408;DHT22;24866;50.248;8.252;2022-08-19T12:19:21;26.80;1.00
37408;DHT22;24866;50.248;8.252;2022-08-19T12:21:58;26.80;1.00
37408;DHT22;24866;50.248;8.252;2022-08-19T12:24:30;26.90;1.00
37408;DHT22;24866;50.248;8.252;2022-08-19T12:27:00;26.60;1.00
37408;DHT22;24866;50.248;8.252;2022-08-19T12:29:31;26.70;1.00
37408;DHT22;24866;50.248;8.252;2022-08-19T12:32:03;26.60;1.00
37408;DHT22;24866;50.248;8.252;2022-08-19T12:34:33;26.30;1.00
37408;DHT22;24866;50.248;8.252;2022-08-19T12:37:05;26.70;99.90
37408;DHT22;24866;50.248;8.252;2022-08-19T12:39:38;27.00;1.00
37408;DHT22;24866;50.248;8.252;2022-08-19T12:42:10;27.10;1.00
37408;DHT22;24866;50.248;8.252;2022-08-19T12:44:42;26.30;1.00
37408;DHT22;24866;50.248;8.252;2022-08-19T12:47:14;26.20;99.90
37408;DHT22;24866;50.248;8.252;2022-08-19T12:49:45;26.00;99.90
37408;DHT22;24866;50.248;8.252;2022-08-19T12:52:15;26.20;99.90
37408;DHT22;24866;50.248;8.252;2022-08-19T12:54:48;26.70;99.90
37408;DHT22;24866;50.248;8.252;2022-08-19T12:57:19;26.50;1.00
37408;DHT22;24866;50.248;8.252;2022-08-19T12:59:52;26.50;1.00
37408;DHT22;24866;50.248;8.252;2022-08-19T13:02:24;26.40;1.00
37408;DHT22;24866;50.248;8.252;2022-08-19T13:04:54;26.70;1.00
37408;DHT22;24866;50.248;8.252;2022-08-19T13:07:25;26.70;99.90
37408;DHT22;24866;50.248;8.252;2022-08-19T13:09:55;27.20;99.90
37408;DHT22;24866;50.248;8.252;2022-08-19T13:12:25;27.20;99.90
37408;DHT22;24866;50.248;8.252;2022-08-19T13:14:56;27.30;99.90
37408;DHT22;24866;50.248;8.252;2022-08-19T13:17:27;27.40;99.90
37408;DHT22;24866;50.248;8.252;2022-08-19T13:19:57;27.20;99.90
37408;DHT22;24866;50.248;8.252;2022-08-19T13:22:28;27.30;99.90
37408;DHT22;24866;50.248;8.252;2022-08-19T13:24:58;27.60;99.90
37408;DHT22;24866;50.248;8.252;2022-08-19T13:27:29;27.20;99.90
37408;DHT22;24866;50.248;8.252;2022-08-19T13:30:00;27.00;99.90
37408;DHT22;24866;50.248;8.252;2022-08-19T13:32:48;27.60;99.90
37408;DHT22;24866;50.248;8.252;2022-08-19T13:35:37;27.40;99.90
37408;DHT22;24866;50.248;8.252;2022-08-19T13:38:07;27.20;99.90
37408;DHT22;24866;50.248;8.252;2022-08-19T13:40:39;27.60;99.90
37408;DHT22;24866;50.248;8.252;2022-08-19T13:43:09;27.40;99.90
37408;DHT22;24866;50.248;8.252;2022-08-19T13:45:39;27.20;99.90
37408;DHT22;24866;50.248;8.252;2022-08-19T13:48:11;27.40;89.00
37408;DHT22;24866;50.248;8.252;2022-08-19T13:50:43;27.50;84.70
37408;DHT22;24866;50.248;8.252;2022-08-19T13:53:16;27.60;60.00
37408;DHT22;24866;50.248;8.252;2022-08-19T13:55:46;28.20;75.00
37408;DHT22;24866;50.248;8.252;2022-08-19T13:58:16;27.50;7.70
37408;DHT22;24866;50.248;8.252;2022-08-19T14:00:46;27.50;1.00
37408;DHT22;24866;50.248;8.252;2022-08-19T14:03:18;27.70;1.00
37408;DHT22;24866;50.248;8.252;2022-08-19T14:05:48;28.20;1.00
37408;DHT22;24866;50.248;8.252;2022-08-19T14:08:18;27.90;1.00
37408;DHT22;24866;50.248;8.252;2022-08-19T14:10:48;28.20;1.00
37408;DHT22;24866;50.248;8.252;2022-08-19T14:13:21;27.60;1.00
37408;DHT22;24866;50.248;8.252;2022-08-19T14:15:51;28.00;1.00
37408;DHT22;24866;50.248;8.252;2022-08-19T14:18:23;28.00;1.00
37408;DHT22;24866;50.248;8.252;2022-08-19T14:20:53;28.10;1.00
37408;DHT22;24866;50.248;8.252;2022-08-19T14:23:24;28.30;1.00
37408;DHT22;24866;50.248;8.252;2022-08-19T14:26:03;27.70;1.00
37408;DHT22;24866;50.248;8.252;2022-08-19T14:28:33;27.50;1.00
37408;DHT22;24866;50.248;8.252;2022-08-19T14:31:03;27.80;1.00
37408;DHT22;24866;50.248;8.252;2022-08-19T14:33:34;28.20;1.00
37408;DHT22;24866;50.248;8.252;2022-08-19T14:36:05;27.90;1.00
37408;DHT22;24866;50.248;8.252;2022-08-19T14:38:35;27.90;1.00
37408;DHT22;24866;50.248;8.252;2022-08-19T14:41:10;28.40;1.00
37408;DHT22;24866;50.248;8.252;2022-08-19T14:43:40;28.10;1.00
37408;DHT22;24866;50.248;8.252;2022-08-19T14:46:10;28.00;1.00
37408;DHT22;24866;50.248;8.252;2022-08-19T14:48:42;28.00;1.00
37408;DHT22;24866;50.248;8.252;2022-08-19T14:51:13;27.80;1.00
37408;DHT22;24866;50.248;8.252;2022-08-19T14:53:43;27.70;1.00
37408;DHT22;24866;50.248;8.252;2022-08-19T14:56:17;28.00;1.00
37408;DHT22;24866;50.248;8.252;2022-08-19T14:58:47;28.30;1.00
37408;DHT22;24866;50.248;8.252;2022-08-19T15:01:21;28.50;1.00
37408;DHT22;24866;50.248;8.252;2022-08-19T15:03:53;28.50;1.00
37408;DHT22;24866;50.248;8.252;2022-08-19T15:06:24;28.10;1.00
37408;DHT22;24866;50.248;8.252;2022-08-19T15:08:55;28.20;1.00
37408;DHT22;24866;50.248;8.252;2022-08-19T15:11:26;28.30;1.00
37408;DHT22;24866;50.248;8.252;2022-08-19T15:13:56;28.30;1.00
37408;DHT22;24866;50.248;8.252;2022-08-19T15:16:26;28.10;1.00
37408;DHT22;24866;50.248;8.252;2022-08-19T15:18:58;28.10;1.00
37408;DHT22;24866;50.248;8.252;2022-08-19T15:21:29;28.10;1.00
37408;DHT22;24866;50.248;8.252;2022-08-19T15:23:59;28.10;1.00
37408;DHT22;24866;50.248;8.252;2022-08-19T15:26:30;28.00;1.00
37408;DHT22;24866;50.248;8.252;2022-08-19T15:29:01;27.70;1.00
37408;DHT22;24866;50.248;8.252;2022-08-19T15:31:32;27.90;1.00
37408;DHT22;24866;50.248;8.252;2022-08-19T15:34:06;27.80;1.00
37408;DHT22;24866;50.248;8.252;2022-08-19T15:36:36;28.00;1.00
37408;DHT22;24866;50.248;8.252;2022-08-19T15:39:06;27.50;1.00
37408;DHT22;24866;50.248;8.252;2022-08-19T15:41:37;27.70;1.00
37408;DHT22;24866;50.248;8.252;2022-08-19T15:44:10;28.00;1.00
37408;DHT22;24866;50.248;8.252;2022-08-19T15:46:42;27.80;1.00
37408;DHT22;24866;50.248;8.252;2022-08-19T15:49:15;27.50;1.00
37408;DHT22;24866;50.248;8.252;2022-08-19T15:51:47;27.50;1.00
37408;DHT22;24866;50.248;8.252;2022-08-19T15:54:20;27.70;1.00
37408;DHT22;24866;50.248;8.252;2022-08-19T15:56:51;28.00;1.00
37408;DHT22;24866;50.248;8.252;2022-08-19T15:59:38;27.90;1.00
37408;DHT22;24866;50.248;8.252;2022-08-19T16:02:26;27.80;1.00